Time;durP1;ratioP1;P1;durP2;ratioP2;P2;SDS_P1;SDS_P2;PMS_P1;PMS_P2;Temp;Humidity;BMP_temperature;BMP_pressure;BME280_temperature;BME280_humidity;BME280_pressure;Samples;Min_cycle;Max_cycle;Signal;HPM_P1;HPM_P2
2021/12/09 00:02:25;;;;;;;15.07;6.80;;;;;;;6.50;27.38;99786.78;5069807;28;20048;-75
2021/12/09 00:04:54;;;;;;;13.87;6.73;;;;;;;6.30;27.41;99777.09;5053056;28;20088;-72
2021/12/09 00:07:20;;;;;;;13.27;6.53;;;;;;;6.50;27.65;99770.94;5069550;28;20087;-73
2021/12/09 00:09:47;;;;;;;13.13;6.37;;;;;;;6.51;27.67;99777.06;5036380;28;20474;-73
2021/12/09 00:12:13;;;;;;;12.23;6.57;;;;;;;6.63;27.30;99773.41;5020022;28;20487;-73
2021/12/09 00:14:39;;;;;;;13.30;6.10;;;;;;;6.32;27.52;99769.88;5037012;28;20092;-73
2021/12/09 00:17:08;;;;;;;9.80;5.77;;;;;;;6.74;27.36;99752.22;5069717;28;20495;-73
2021/12/09 00:19:35;;;;;;;10.37;6.03;;;;;;;6.88;27.32;99775.63;5052790;28;20037;-73
2021/12/09 00:22:02;;;;;;;12.63;5.97;;;;;;;6.56;27.33;99769.63;5069184;28;20047;-74
2021/12/09 00:24:29;;;;;;;16.90;6.67;;;;;;;6.73;27.16;99769.03;5036404;28;20123;-72
2021/12/09 00:26:55;;;;;;;12.67;6.13;;;;;;;6.68;27.29;99772.06;5069315;28;20562;-73
2021/12/09 00:29:22;;;;;;;13.93;6.30;;;;;;;6.85;27.22;99767.97;5052745;28;20059;-72
2021/12/09 00:31:48;;;;;;;13.93;6.93;;;;;;;6.74;27.39;99771.53;5036280;28;20127;-72
2021/12/09 00:34:20;;;;;;;11.63;6.20;;;;;;;6.96;27.32;99767.03;5036291;28;20869;-73
2021/12/09 00:37:10;;;;;;;14.77;6.83;;;;;;;7.08;27.32;99773.91;5036135;28;20079;-73
2021/12/09 00:39:37;;;;;;;13.50;6.13;;;;;;;6.84;27.18;99766.31;5039161;28;20032;-74
2021/12/09 00:42:03;;;;;;;11.60;5.97;;;;;;;7.04;27.44;99767.22;5036104;28;20051;-73
2021/12/09 00:44:30;;;;;;;11.97;6.57;;;;;;;6.99;27.33;99772.06;5035742;28;20048;-73
2021/12/09 00:46:56;;;;;;;11.97;6.17;;;;;;;7.02;27.17;99761.22;5019604;28;20519;-75
2021/12/09 00:49:22;;;;;;;14.97;7.30;;;;;;;6.98;27.33;99768.56;5052420;28;20098;-73
2021/12/09 00:51:49;;;;;;;10.53;5.73;;;;;;;6.88;27.18;99758.00;5019163;28;20048;-72
2021/12/09 00:54:15;;;;;;;13.87;7.10;;;;;;;6.93;27.44;99769.94;5035964;28;20044;-74
2021/12/09 00:56:42;;;;;;;16.03;7.00;;;;;;;7.10;27.32;99774.63;5068299;28;20041;-75
2021/12/09 00:59:08;;;;;;;16.83;6.60;;;;;;;6.90;27.28;99750.75;5068333;28;20044;-74
2021/12/09 01:01:34;;;;;;;11.77;5.93;;;;;;;6.90;27.51;99779.81;5067689;28;20405;-74
2021/12/09 01:04:00;;;;;;;14.60;6.47;;;;;;;6.79;27.50;99774.63;5067571;28;20045;-75
2021/12/09 01:06:26;;;;;;;10.33;5.20;;;;;;;6.76;27.45;99785.41;5066625;28;20044;-79
2021/12/09 01:08:52;;;;;;;12.27;5.67;;;;;;;6.67;27.51;99753.72;5033614;28;20476;-75
2021/12/09 01:11:19;;;;;;;10.27;5.47;;;;;;;6.81;27.49;99759.47;5016685;28;20080;-75
2021/12/09 01:13:45;;;;;;;10.57;5.80;;;;;;;6.78;27.56;99754.44;5017045;28;20497;-75
2021/12/09 01:16:12;;;;;;;9.93;5.67;;;;;;;6.96;27.38;99780.25;5033230;28;20060;-76
2021/12/09 01:18:40;;;;;;;12.17;5.77;;;;;;;7.24;27.64;99784.81;5068144;28;20040;-76
2021/12/09 01:21:06;;;;;;;10.47;5.17;;;;;;;7.10;27.57;99780.75;5069743;28;20051;-75
2021/12/09 01:23:33;;;;;;;11.80;5.80;;;;;;;7.00;27.60;99786.91;5068806;28;20036;-74
2021/12/09 01:26:02;;;;;;;10.73;5.80;;;;;;;6.83;27.66;99776.03;5052037;28;20040;-74
2021/12/09 01:28:33;;;;;;;10.37;5.30;;;;;;;6.90;27.66;99777.16;5035517;28;20070;-75
2021/12/09 01:31:04;;;;;;;13.35;5.95;;;;;;;6.67;27.68;99791.47;5035625;28;20044;-73
2021/12/09 01:33:32;;;;;;;12.10;6.50;;;;;;;6.93;27.59;99784.81;5035593;28;20045;-74
2021/12/09 01:35:59;;;;;;;9.60;5.03;;;;;;;6.89;28.02;99780.78;5051645;28;20033;-74
2021/12/09 01:38:29;;;;;;;9.67;5.27;;;;;;;6.73;27.86;99767.19;5068534;28;20110;-74
2021/12/09 01:40:55;;;;;;;9.75;5.75;;;;;;;6.59;27.83;99767.56;5052031;28;20036;-75
2021/12/09 01:43:22;;;;;;;10.00;5.73;;;;;;;6.69;27.81;99768.44;5051057;28;20056;-73
2021/12/09 01:45:48;;;;;;;9.10;5.17;;;;;;;6.67;27.87;99770.38;5067785;28;20454;-73
2021/12/09 01:48:15;;;;;;;9.40;5.37;;;;;;;6.54;27.64;99777.66;5018207;28;20508;-75
2021/12/09 01:50:41;;;;;;;12.40;5.60;;;;;;;6.66;27.48;99786.34;5068758;28;20495;-74
2021/12/09 01:53:07;;;;;;;9.67;5.33;;;;;;;6.73;27.77;99788.31;5034275;28;20048;-73
2021/12/09 01:55:34;;;;;;;10.33;5.10;;;;;;;6.99;27.60;99779.97;5067494;28;20049;-73
2021/12/09 01:58:01;;;;;;;9.93;5.50;;;;;;;6.88;27.59;99784.41;5050600;28;20048;-74
2021/12/09 02:00:30;;;;;;;10.60;5.53;;;;;;;6.93;27.68;99776.06;5017499;28;20036;-79
2021/12/09 02:02:56;;;;;;;9.33;4.87;;;;;;;6.71;27.62;99790.28;5050966;28;20044;-76
2021/12/09 02:05:24;;;;;;;9.00;4.73;;;;;;;7.00;27.61;99785.13;5050785;28;20044;-74
2021/12/09 02:07:50;;;;;;;11.43;5.57;;;;;;;6.81;27.75;99795.59;5034207;28;20052;-74
2021/12/09 02:10:18;;;;;;;10.97;5.73;;;;;;;7.08;27.62;99795.03;5050583;28;20590;-73
2021/12/09 02:12:47;;;;;;;12.70;6.07;;;;;;;7.16;27.58;99801.34;5050572;28;20044;-74
2021/12/09 02:15:15;;;;;;;7.77;4.83;;;;;;;7.07;27.45;99812.69;5034026;28;20044;-73
2021/12/09 02:17:41;;;;;;;13.53;5.80;;;;;;;6.80;27.49;99818.53;5050863;28;20044;-73
2021/12/09 02:20:08;;;;;;;16.27;5.40;;;;;;;7.02;27.28;99811.41;5067138;28;20102;-73
2021/12/09 02:22:35;;;;;;;9.13;5.70;;;;;;;7.10;27.47;99817.72;5050442;28;20121;-73
2021/12/09 02:25:01;;;;;;;12.10;5.27;;;;;;;6.90;27.26;99802.75;5066940;28;20045;-73
2021/12/09 02:27:29;;;;;;;13.43;6.10;;;;;;;6.83;27.32;99812.97;5050594;28;20076;-76
2021/12/09 02:29:56;;;;;;;14.40;5.80;;;;;;;7.05;27.63;99816.41;5034017;28;20036;-74
2021/12/09 02:32:22;;;;;;;9.20;5.07;;;;;;;6.72;27.65;99818.31;5017451;28;20510;-75
2021/12/09 02:34:49;;;;;;;9.63;5.30;;;;;;;6.73;27.61;99809.44;5017555;28;20496;-74
2021/12/09 02:37:15;;;;;;;9.47;5.10;;;;;;;6.56;27.43;99812.69;5033552;28;20056;-75
2021/12/09 02:39:42;;;;;;;11.87;5.03;;;;;;;6.86;27.28;99819.78;5017250;28;20043;-74
2021/12/09 02:42:09;;;;;;;11.40;5.50;;;;;;;6.69;27.54;99829.13;5034048;28;20036;-72
2021/12/09 02:44:35;;;;;;;8.83;5.53;;;;;;;6.74;27.45;99829.59;5066893;28;20118;-75
2021/12/09 02:47:02;;;;;;;11.50;5.50;;;;;;;6.62;27.35;99825.34;5034237;28;20051;-73
2021/12/09 02:49:29;;;;;;;11.87;5.43;;;;;;;6.87;27.37;99813.56;5067243;28;20515;-72
2021/12/09 02:51:58;;;;;;;11.60;6.07;;;;;;;7.03;27.38;99831.59;5034279;28;20044;-77
2021/12/09 02:54:25;;;;;;;11.70;5.27;;;;;;;6.81;27.23;99838.66;5067631;28;20040;-73
2021/12/09 02:56:54;;;;;;;11.07;5.23;;;;;;;7.13;27.19;99829.81;5017277;28;20131;-73
2021/12/09 02:59:20;;;;;;;11.33;5.63;;;;;;;6.54;27.30;99837.50;5033515;28;20135;-74
2021/12/09 03:01:57;;;;;;;9.67;5.63;;;;;;;6.94;27.32;99838.47;5077495;28;20159;-73
2021/12/09 03:04:51;;;;;;;10.40;5.20;;;;;;;7.38;26.60;99847.88;5068115;28;20041;-73
2021/12/09 03:07:25;;;;;;;8.30;4.73;;;;;;;6.61;26.91;99847.41;5068709;28;20033;-74
2021/12/09 03:09:56;;;;;;;10.63;5.20;;;;;;;7.03;26.83;99853.53;5034539;28;20045;-74
2021/12/09 03:12:32;;;;;;;11.18;5.40;;;;;;;7.20;26.94;99852.06;5086691;28;20130;-73
2021/12/09 03:15:00;;;;;;;10.93;5.13;;;;;;;6.89;27.17;99846.78;5104930;28;20048;-74
2021/12/09 03:17:27;;;;;;;8.83;5.17;;;;;;;6.68;27.14;99845.97;5105089;28;20043;-73
2021/12/09 03:19:53;;;;;;;9.73;5.33;;;;;;;6.71;27.37;99850.97;5088230;28;20071;-74
2021/12/09 03:22:20;;;;;;;10.10;5.53;;;;;;;6.71;27.39;99848.34;5074382;28;20055;-74
2021/12/09 03:24:47;;;;;;;11.50;5.13;;;;;;;6.63;27.44;99853.41;5091509;28;20063;-74
2021/12/09 03:27:14;;;;;;;8.67;4.57;;;;;;;6.76;27.43;99858.50;5058318;28;20051;-74
2021/12/09 03:29:41;;;;;;;13.70;5.40;;;;;;;6.78;27.14;99859.22;5092337;28;20093;-77
2021/12/09 03:32:13;;;;;;;11.37;5.27;;;;;;;6.93;27.21;99868.50;5037832;28;20048;-75
2021/12/09 03:34:41;;;;;;;10.10;5.43;;;;;;;6.98;27.09;99873.38;5072918;28;20059;-77
2021/12/09 03:37:11;;;;;;;10.80;5.10;;;;;;;7.16;27.10;99855.97;5054968;28;20036;-76
2021/12/09 03:39:39;;;;;;;12.68;5.32;;;;;;;7.05;26.85;99871.88;5055203;28;20047;-75
2021/12/09 03:42:08;;;;;;;9.90;5.20;;;;;;;7.16;26.77;99875.28;5051136;28;20094;-75
2021/12/09 03:44:35;;;;;;;9.27;5.10;;;;;;;6.96;26.88;99878.78;5087510;28;20057;-74
2021/12/09 03:47:05;;;;;;;10.87;5.43;;;;;;;7.11;26.84;99868.72;5073764;28;20098;-74
2021/12/09 03:49:31;;;;;;;9.80;5.10;;;;;;;6.63;27.02;99878.94;5090783;28;20184;-75
2021/12/09 03:51:58;;;;;;;12.60;5.17;;;;;;;6.86;26.91;99873.44;5072094;28;20060;-74
2021/12/09 03:54:25;;;;;;;11.73;5.20;;;;;;;6.97;27.06;99876.97;5073125;28;20044;-74
2021/12/09 03:56:52;;;;;;;11.40;5.63;;;;;;;6.88;27.13;99884.72;5056788;28;20134;-74
2021/12/09 03:59:19;;;;;;;11.47;5.33;;;;;;;6.81;26.67;99888.81;5091051;28;20911;-74
2021/12/09 04:01:46;;;;;;;11.27;5.57;;;;;;;6.82;26.72;99889.66;5053850;28;20068;-75
2021/12/09 04:04:13;;;;;;;11.23;5.33;;;;;;;7.05;26.63;99893.84;5070664;28;20147;-75
2021/12/09 04:06:39;;;;;;;13.87;5.27;;;;;;;6.90;26.88;99892.50;5066336;28;20125;-73
2021/12/09 04:09:10;;;;;;;12.60;5.77;;;;;;;7.00;26.77;99874.06;5091725;28;20586;-74
2021/12/09 04:11:36;;;;;;;9.70;5.05;;;;;;;6.68;26.88;99896.09;5039868;28;20526;-76
2021/12/09 04:14:03;;;;;;;12.97;5.50;;;;;;;6.97;26.69;99901.56;5090674;28;20036;-74
2021/12/09 04:16:29;;;;;;;10.03;5.13;;;;;;;6.86;26.72;99901.63;5057239;28;20036;-79
2021/12/09 04:18:56;;;;;;;10.13;5.37;;;;;;;6.66;26.33;99884.81;5074188;28;20500;-75
2021/12/09 04:21:22;;;;;;;11.57;5.30;;;;;;;6.71;26.59;99895.84;5090023;28;20139;-74
2021/12/09 04:23:49;;;;;;;10.77;5.60;;;;;;;6.77;26.33;99903.25;5106794;28;20059;-74
2021/12/09 04:26:15;;;;;;;11.13;5.77;;;;;;;6.74;26.67;99895.59;5054184;28;20037;-73
2021/12/09 04:28:42;;;;;;;13.40;6.10;;;;;;;6.74;26.69;99900.88;5088944;28;20115;-73
2021/12/09 04:31:08;;;;;;;11.50;5.80;;;;;;;6.59;26.46;99896.88;5049634;28;20063;-72
2021/12/09 04:33:35;;;;;;;13.07;6.43;;;;;;;6.79;26.19;99895.19;5069104;28;20040;-71
2021/12/09 04:36:01;;;;;;;12.50;5.70;;;;;;;6.61;26.46;99889.63;5064666;28;20105;-74
2021/12/09 04:38:27;;;;;;;13.70;6.53;;;;;;;6.55;26.12;99894.59;5073897;28;20495;-74
2021/12/09 04:40:53;;;;;;;15.20;6.10;;;;;;;6.37;26.43;99896.94;5056196;28;20563;-70
2021/12/09 04:43:19;;;;;;;18.13;6.33;;;;;;;6.37;26.55;99894.31;5073113;28;20056;-71
2021/12/09 04:45:47;;;;;;;13.47;6.30;;;;;;;5.97;26.47;99887.94;5091544;28;20047;-70
2021/12/09 04:48:13;;;;;;;12.77;6.43;;;;;;;6.00;26.75;99892.97;5090180;28;20475;-71
2021/12/09 04:50:41;;;;;;;15.70;5.80;;;;;;;6.15;26.67;99893.53;5074481;28;20131;-70
2021/12/09 04:53:07;;;;;;;13.73;6.40;;;;;;;5.75;27.24;99884.47;5091429;28;20062;-70
2021/12/09 04:55:34;;;;;;;17.10;6.80;;;;;;;6.03;27.20;99890.09;5091325;28;20571;-71
2021/12/09 04:58:00;;;;;;;14.63;7.23;;;;;;;5.99;27.19;99880.75;5055982;28;20145;-67
2021/12/09 05:00:28;;;;;;;15.87;7.00;;;;;;;6.10;26.89;99888.66;5087101;28;20452;-70
2021/12/09 05:03:03;;;;;;;18.67;7.30;;;;;;;5.53;26.98;99869.53;5089575;28;20036;-72
2021/12/09 05:05:35;;;;;;;11.37;6.23;;;;;;;6.11;27.29;99892.94;5102753;28;20036;-71
2021/12/09 05:08:05;;;;;;;15.57;6.33;;;;;;;5.95;27.27;99897.75;5071833;28;20040;-69
2021/12/09 05:10:36;;;;;;;14.30;6.77;;;;;;;5.94;27.09;99893.47;5080137;28;20109;-69
2021/12/09 05:13:03;;;;;;;14.80;6.50;;;;;;;5.95;27.27;99897.75;5067248;28;20123;-68
2021/12/09 05:15:30;;;;;;;14.10;6.57;;;;;;;5.65;27.47;99904.59;5068934;28;20510;-68
2021/12/09 05:17:56;;;;;;;16.40;7.03;;;;;;;5.50;27.36;99906.66;5081778;28;20555;-68
2021/12/09 05:20:22;;;;;;;12.27;6.57;;;;;;;5.71;27.42;99917.28;5086307;28;20109;-68
2021/12/09 05:22:48;;;;;;;18.37;6.57;;;;;;;5.63;27.36;99915.25;5088196;28;20463;-69
2021/12/09 05:25:14;;;;;;;15.60;6.87;;;;;;;5.68;27.49;99913.09;5088532;28;20075;-71
2021/12/09 05:27:40;;;;;;;15.40;6.97;;;;;;;5.56;27.59;99914.06;5089494;28;20131;-68
2021/12/09 05:30:12;;;;;;;17.37;7.73;;;;;;;5.87;27.39;99910.75;5088808;28;20417;-69
2021/12/09 05:32:37;;;;;;;16.57;6.70;;;;;;;5.84;27.49;99915.41;5071794;28;20078;-69
2021/12/09 05:35:04;;;;;;;15.67;6.80;;;;;;;6.05;27.51;99925.09;5088147;28;20071;-72
2021/12/09 05:37:30;;;;;;;15.47;7.17;;;;;;;5.65;27.42;99921.25;5088503;28;20052;-68
2021/12/09 05:39:57;;;;;;;15.07;6.67;;;;;;;6.20;27.54;99918.56;5088475;28;20105;-67
2021/12/09 05:42:24;;;;;;;19.90;6.67;;;;;;;5.99;27.45;99878.13;5071229;28;20127;-68
2021/12/09 05:44:50;;;;;;;13.80;6.70;;;;;;;6.01;27.22;99926.25;5086834;28;20932;-68
2021/12/09 05:47:16;;;;;;;17.37;6.40;;;;;;;6.16;27.22;99934.75;5087158;28;20040;-67
2021/12/09 05:49:45;;;;;;;13.73;6.70;;;;;;;6.42;27.19;99936.97;5088863;28;20079;-68
2021/12/09 05:52:12;;;;;;;17.77;7.10;;;;;;;6.28;27.07;99926.72;5089045;28;20097;-68
2021/12/09 05:54:39;;;;;;;21.30;6.93;;;;;;;6.18;27.24;99933.66;5087216;28;20051;-67
2021/12/09 05:57:05;;;;;;;13.83;6.03;;;;;;;5.91;27.43;99925.34;5070420;28;20496;-66
2021/12/09 05:59:31;;;;;;;15.70;6.37;;;;;;;5.84;27.41;99932.06;5090025;28;20089;-68
2021/12/09 06:01:58;;;;;;;13.03;6.70;;;;;;;5.92;27.52;99928.81;5070971;28;20035;-68
2021/12/09 06:04:24;;;;;;;13.27;6.40;;;;;;;5.78;27.94;99934.31;5070554;28;20089;-68
2021/12/09 06:06:51;;;;;;;16.07;6.67;;;;;;;6.15;27.71;99935.72;5087462;28;20560;-68
2021/12/09 06:09:17;;;;;;;13.53;6.60;;;;;;;5.82;27.67;99938.41;5104303;28;20036;-67
2021/12/09 06:11:46;;;;;;;14.67;6.67;;;;;;;5.92;27.64;99934.09;5088099;28;20123;-68
2021/12/09 06:14:12;;;;;;;14.07;6.47;;;;;;;5.99;27.97;99932.63;5069184;28;20032;-68
2021/12/09 06:16:38;;;;;;;14.20;7.17;;;;;;;5.75;27.97;99945.91;5086605;28;20508;-68
2021/12/09 06:19:04;;;;;;;15.23;7.10;;;;;;;5.80;27.97;99945.53;5070678;28;20043;-68
2021/12/09 06:21:30;;;;;;;13.90;6.60;;;;;;;5.83;27.92;99942.69;5088613;28;20047;-73
2021/12/09 06:23:59;;;;;;;10.93;5.77;;;;;;;6.29;28.08;99954.75;5070697;28;20051;-67
2021/12/09 06:26:25;;;;;;;13.33;6.13;;;;;;;5.96;27.93;99951.31;5088844;28;20067;-70
2021/12/09 06:28:52;;;;;;;12.50;6.30;;;;;;;6.39;28.84;99939.03;5067878;28;20544;-68
2021/12/09 06:31:19;;;;;;;11.67;5.70;;;;;;;6.17;27.74;99933.78;5085330;28;20039;-69
2021/12/09 06:33:45;;;;;;;9.83;5.27;;;;;;;6.23;27.64;99949.13;5102550;28;20036;-67
2021/12/09 06:36:11;;;;;;;10.53;5.40;;;;;;;6.35;27.42;99945.53;5069008;28;20514;-68
2021/12/09 06:38:37;;;;;;;12.03;5.40;;;;;;;6.29;27.31;99960.03;5085545;28;20050;-69
2021/12/09 06:41:03;;;;;;;12.37;5.20;;;;;;;6.71;27.21;99961.81;5052379;28;20443;-75
2021/12/09 06:43:30;;;;;;;12.27;5.60;;;;;;;6.99;26.91;99955.09;5053458;28;20173;-69
2021/12/09 06:45:56;;;;;;;14.00;6.00;;;;;;;7.63;26.34;99964.53;5070774;28;20086;-68
2021/12/09 06:48:22;;;;;;;10.17;5.37;;;;;;;8.29;25.23;99976.38;5088876;28;20123;-68
2021/12/09 06:50:49;;;;;;;11.93;6.43;;;;;;;9.03;24.66;99982.88;5053552;28;20039;-67
2021/12/09 06:53:16;;;;;;;19.17;8.63;;;;;;;9.79;23.90;99983.56;5088670;28;20076;-68
2021/12/09 06:55:43;;;;;;;23.13;10.63;;;;;;;10.83;22.92;99985.84;5088694;28;20483;-67
2021/12/09 06:58:10;;;;;;;25.03;12.27;;;;;;;11.49;22.34;99992.41;5108545;28;20036;-68
2021/12/09 07:00:41;;;;;;;21.37;10.90;;;;;;;11.95;21.72;99986.75;5092256;28;20089;-70
2021/12/09 07:03:09;;;;;;;14.33;7.00;;;;;;;11.54;21.63;99998.13;5092691;28;20172;-67
2021/12/09 07:05:36;;;;;;;14.00;7.83;;;;;;;11.01;22.20;99989.38;5090919;28;20153;-70
2021/12/09 07:08:03;;;;;;;12.43;6.37;;;;;;;10.60;22.85;100003.22;5091221;28;20105;-67
2021/12/09 07:10:29;;;;;;;13.77;6.77;;;;;;;9.89;23.29;100010.06;5091554;28;20038;-68
2021/12/09 07:12:55;;;;;;;14.60;6.90;;;;;;;9.53;23.35;99998.44;5090128;28;20084;-68
2021/12/09 07:15:21;;;;;;;13.60;6.37;;;;;;;9.42;24.00;100005.72;5090286;28;20048;-69
2021/12/09 07:17:46;;;;;;;12.83;6.57;;;;;;;9.75;23.56;100014.03;5073896;28;20036;-68
2021/12/09 07:20:18;;;;;;;21.00;6.57;;;;;;;10.93;23.01;100013.22;5091021;28;20036;-69
2021/12/09 07:22:45;;;;;;;16.67;7.83;;;;;;;11.34;21.98;100017.91;5057278;28;20545;-69
2021/12/09 07:25:12;;;;;;;13.63;6.13;;;;;;;12.13;20.84;100006.16;5074714;28;20071;-70
2021/12/09 07:27:37;;;;;;;11.47;5.63;;;;;;;13.13;20.40;100023.81;5074170;28;20051;-70
2021/12/09 07:30:05;;;;;;;14.47;5.60;;;;;;;14.62;19.52;100022.28;5074313;28;20109;-70
2021/12/09 07:32:32;;;;;;;13.30;5.68;;;;;;;14.79;18.73;99997.13;5091550;28;20043;-71
2021/12/09 07:34:58;;;;;;;10.05;4.93;;;;;;;15.96;17.93;100001.84;5057418;28;20453;-69
2021/12/09 07:37:24;;;;;;;7.97;4.63;;;;;;;16.68;17.79;100009.06;5107672;28;20040;-70
2021/12/09 07:39:50;;;;;;;8.20;4.80;;;;;;;17.42;16.74;99998.91;5073861;28;20048;-69
2021/12/09 07:42:17;;;;;;;10.15;5.00;;;;;;;18.35;16.79;100009.16;5090161;28;20063;-69
2021/12/09 07:44:43;;;;;;;12.63;6.60;;;;;;;19.29;15.84;100020.94;5056596;28;20048;-69
2021/12/09 07:47:10;;;;;;;13.65;5.60;;;;;;;19.68;15.63;100023.69;5073639;28;20070;-70
2021/12/09 07:49:36;;;;;;;13.05;5.70;;;;;;;20.14;15.52;100023.66;5089982;28;20047;-70
2021/12/09 07:52:04;;;;;;;8.85;5.38;;;;;;;20.44;15.54;100025.66;5091637;28;20047;-70
2021/12/09 07:54:30;;;;;;;11.10;5.93;;;;;;;20.62;14.71;99998.81;5091872;28;20051;-70
2021/12/09 07:56:56;;;;;;;12.18;5.47;;;;;;;20.52;15.65;99997.63;5090254;28;20369;-70
2021/12/09 07:59:22;;;;;;;13.25;5.93;;;;;;;20.77;15.05;100001.25;5089996;28;20180;-71
2021/12/09 08:01:48;;;;;;;10.38;5.47;;;;;;;20.88;14.86;100023.00;5073250;28;20044;-70
2021/12/09 08:04:16;;;;;;;9.45;5.47;;;;;;;21.22;14.35;100016.41;5056598;28;20525;-70
2021/12/09 08:06:42;;;;;;;11.30;5.40;;;;;;;21.08;13.61;100020.25;5089053;28;20105;-70
2021/12/09 08:09:08;;;;;;;8.60;5.07;;;;;;;21.46;14.08;100029.16;5073242;28;20039;-69
2021/12/09 08:11:39;;;;;;;11.13;5.65;;;;;;;22.31;13.84;100023.84;5090764;28;20533;-70
2021/12/09 08:14:11;;;;;;;16.98;7.55;;;;;;;23.11;13.43;100028.94;5073668;28;20044;-69
2021/12/09 08:16:39;;;;;;;13.30;7.35;;;;;;;23.30;13.44;100021.63;5055957;28;20496;-72
2021/12/09 08:19:09;;;;;;;13.50;5.90;;;;;;;23.86;12.17;100029.28;5089889;28;20036;-72
2021/12/09 08:21:37;;;;;;;12.27;6.35;;;;;;;23.54;12.26;100030.66;5089880;28;20384;-73
2021/12/09 08:24:05;;;;;;;10.88;6.32;;;;;;;23.78;12.60;100021.50;5089484;28;20046;-72
2021/12/09 08:26:31;;;;;;;14.02;6.07;;;;;;;23.54;12.85;100020.63;5055962;28;20040;-71
2021/12/09 08:28:57;;;;;;;18.55;8.10;;;;;;;23.76;12.70;100016.31;5089412;28;20043;-72
2021/12/09 08:31:23;;;;;;;14.00;6.43;;;;;;;23.56;13.05;100018.50;5090769;28;20423;-71
2021/12/09 08:33:49;;;;;;;13.52;6.45;;;;;;;23.83;12.30;100018.91;5072423;28;20047;-71
2021/12/09 08:36:15;;;;;;;12.82;6.45;;;;;;;23.87;12.34;100018.22;5105930;28;20047;-71
2021/12/09 08:38:41;;;;;;;13.85;7.53;;;;;;;24.19;12.28;100024.97;5089882;28;20040;-70
2021/12/09 08:41:07;;;;;;;13.55;7.05;;;;;;;24.73;11.78;100024.59;5089178;28;20040;-70
2021/12/09 08:43:33;;;;;;;11.27;7.68;;;;;;;25.08;12.02;100018.22;5071852;28;20056;-71
2021/12/09 08:45:59;;;;;;;15.98;9.05;;;;;;;25.59;11.75;100026.25;5055982;28;20078;-73
2021/12/09 08:48:26;;;;;;;15.70;7.50;;;;;;;25.50;11.22;100003.22;5090388;28;20070;-73
2021/12/09 08:50:52;;;;;;;12.63;6.28;;;;;;;25.34;11.46;100015.75;5089027;28;20039;-73
2021/12/09 08:53:21;;;;;;;14.23;6.70;;;;;;;26.05;11.59;100020.50;5090283;28;20048;-74
2021/12/09 08:55:48;;;;;;;13.98;6.85;;;;;;;26.03;11.66;100020.75;5105938;28;20040;-73
2021/12/09 08:58:14;;;;;;;12.48;6.80;;;;;;;26.10;11.46;100018.69;5071902;28;20058;-72
2021/12/09 09:00:41;;;;;;;10.82;6.30;;;;;;;26.32;11.53;100011.38;5089212;28;20078;-71
2021/12/09 09:03:07;;;;;;;22.27;11.98;;;;;;;25.29;11.64;100003.91;5089289;28;20047;-71
2021/12/09 09:05:35;;;;;;;14.70;7.90;;;;;;;25.01;11.81;100002.03;5055648;28;20040;-70
2021/12/09 09:08:02;;;;;;;14.05;7.90;;;;;;;25.02;11.90;100006.41;5090222;28;20130;-70
2021/12/09 09:10:30;;;;;;;13.07;6.85;;;;;;;25.16;11.41;99990.63;5055630;28;20122;-71
2021/12/09 09:12:56;;;;;;;15.13;7.15;;;;;;;25.52;12.27;100012.81;5088808;28;20494;-71
2021/12/09 09:15:25;;;;;;;11.20;6.78;;;;;;;26.48;11.36;100021.44;5088954;28;20052;-71
2021/12/09 09:17:51;;;;;;;17.58;7.00;;;;;;;26.16;10.94;100016.88;5088096;28;20063;-71
2021/12/09 09:20:20;;;;;;;18.20;8.73;;;;;;;26.76;11.43;100017.72;5090138;28;20048;-71
2021/12/09 09:22:46;;;;;;;11.02;6.03;;;;;;;26.23;11.73;100012.09;5088412;28;20142;-72
2021/12/09 09:25:17;;;;;;;9.90;5.50;;;;;;;26.78;10.86;100021.03;5089784;28;20130;-71
2021/12/09 09:27:46;;;;;;;;;;;;;;;27.64;10.30;100014.63;5089079;28;20496;-72
2021/12/09 09:30:17;;;;;;;11.07;5.70;;;;;;;27.43;11.09;100012.78;5105652;28;20367;-72
2021/12/09 09:32:52;;;;;;;10.43;5.20;;;;;;;27.52;11.23;100008.50;5072057;28;20093;-72
2021/12/09 09:35:18;;;;;;;9.75;5.60;;;;;;;26.15;11.21;100007.06;5060491;28;20475;-72
2021/12/09 09:37:45;;;;;;;9.07;6.18;;;;;;;25.03;11.79;100007.22;5087981;28;20040;-73
2021/12/09 09:40:17;;;;;;;12.55;7.22;;;;;;;25.23;10.78;100022.06;5088333;28;20052;-75
2021/12/09 09:45:13;;;;;;;11.73;5.95;;;;;;;24.69;10.98;100034.25;5088691;28;20202;-73
2021/12/09 09:47:39;;;;;;;14.93;5.55;;;;;;;23.27;12.35;100030.22;5071607;28;20041;-74
2021/12/09 09:50:07;;;;;;;10.48;5.85;;;;;;;22.10;12.01;100036.97;5088364;28;20138;-72
2021/12/09 09:52:34;;;;;;;12.02;6.47;;;;;;;20.14;13.23;100023.66;5088126;28;20534;-72
2021/12/09 09:55:01;;;;;;;11.82;6.15;;;;;;;18.58;13.97;100018.78;5087921;28;20075;-72
2021/12/09 09:57:28;;;;;;;14.35;6.13;;;;;;;18.99;14.08;100025.78;5089412;28;20096;-72
2021/12/09 09:59:55;;;;;;;11.23;5.85;;;;;;;20.67;13.97;100027.88;5089532;28;20517;-71
2021/12/09 10:02:21;;;;;;;13.90;6.15;;;;;;;21.93;12.71;100028.59;5071091;28;20046;-73
2021/12/09 10:04:59;;;;;;;9.73;5.30;;;;;;;23.50;11.88;100034.88;5071094;28;20044;-74
2021/12/09 10:07:25;;;;;;;12.13;6.13;;;;;;;24.51;11.16;100025.41;5087638;28;20071;-73
2021/12/09 10:09:52;;;;;;;14.30;6.20;;;;;;;25.10;10.20;100037.81;5087621;28;20036;-72
2021/12/09 10:12:18;;;;;;;11.90;6.13;;;;;;;25.47;10.39;100034.47;5088634;28;20067;-73
2021/12/09 10:14:52;;;;;;;13.57;6.82;;;;;;;26.60;9.67;100032.19;5071305;28;20456;-73
2021/12/09 10:17:21;;;;;;;15.60;7.00;;;;;;;26.34;9.34;100022.03;5089101;28;20036;-74
2021/12/09 10:19:47;;;;;;;16.23;6.70;;;;;;;26.13;10.31;100015.47;5070596;28;20040;-74
2021/12/09 10:22:16;;;;;;;17.00;7.85;;;;;;;26.73;9.70;100022.84;5087706;28;20138;-73
2021/12/09 10:24:44;;;;;;;14.88;7.78;;;;;;;26.67;9.29;100018.41;5087525;28;20415;-74
2021/12/09 10:27:22;;;;;;;13.00;7.25;;;;;;;27.14;9.25;100017.63;5053812;28;20139;-73
2021/12/09 10:29:48;;;;;;;11.65;6.65;;;;;;;26.66;9.93;100009.44;5055986;28;20044;-73
2021/12/09 10:32:25;;;;;;;14.90;7.03;;;;;;;26.93;9.13;100026.66;5074783;28;20040;-72
2021/12/09 10:34:51;;;;;;;11.55;6.60;;;;;;;26.51;10.07;100024.72;5075270;28;20047;-74
2021/12/09 10:37:23;;;;;;;12.07;7.18;;;;;;;26.87;9.32;100032.31;5074703;28;20043;-72
2021/12/09 10:39:52;;;;;;;15.25;6.60;;;;;;;26.46;10.00;100028.22;5074348;28;20039;-72
2021/12/09 10:42:32;;;;;;;11.63;6.50;;;;;;;26.65;9.05;100031.50;5092683;28;20051;-72
2021/12/09 10:44:59;;;;;;;13.65;6.47;;;;;;;25.67;9.87;100023.97;5091721;28;20056;-72
2021/12/09 10:50:42;;;;;;;12.35;6.93;;;;;;;26.24;8.71;100027.34;5092494;28;20055;-72
2021/12/09 10:55:53;;;;;;;11.18;6.65;;;;;;;25.56;8.84;100016.69;5092212;28;20092;-71
2021/12/09 10:58:22;;;;;;;11.93;7.50;;;;;;;25.01;9.37;100010.19;5057634;28;20142;-71
2021/12/09 11:00:52;;;;;;;14.55;7.15;;;;;;;24.23;10.18;100030.75;5092690;28;20138;-72
2021/12/09 11:03:26;;;;;;;13.63;7.40;;;;;;;24.07;9.91;100026.03;5091271;28;20074;-71
2021/12/09 11:06:07;;;;;;;12.32;7.30;;;;;;;23.92;9.88;100034.63;5092646;28;20622;-71
2021/12/09 11:08:33;;;;;;;15.02;7.60;;;;;;;23.10;10.15;100046.25;5092470;28;20043;-70
2021/12/09 11:11:09;;;;;;;11.77;6.60;;;;;;;23.13;10.22;100050.38;5092746;28;20044;-71
2021/12/09 11:13:47;;;;;;;17.00;7.50;;;;;;;22.78;9.75;100052.09;5090666;28;20036;-70
2021/12/09 11:16:23;;;;;;;9.77;6.20;;;;;;;22.63;10.32;100055.16;5089962;28;20044;-72
2021/12/09 11:18:51;;;;;;;12.00;6.80;;;;;;;22.07;10.93;100046.34;5091261;28;20096;-73
2021/12/09 11:21:31;;;;;;;12.52;6.82;;;;;;;22.30;10.14;100060.09;5090368;28;20044;-73
2021/12/09 11:24:01;;;;;;;14.35;6.90;;;;;;;21.85;10.83;100050.50;5074160;28;20127;-74
2021/12/09 11:26:43;;;;;;;13.73;6.38;;;;;;;21.72;10.57;100050.59;5073701;28;20051;-75
2021/12/09 11:29:30;;;;;;;14.57;7.15;;;;;;;21.08;10.34;100049.97;5090764;28;20151;-74
2021/12/09 11:32:16;;;;;;;10.98;6.72;;;;;;;20.97;10.99;100053.34;5074306;28;20077;-74
2021/12/09 11:34:53;;;;;;;13.85;6.38;;;;;;;20.32;11.88;100038.16;5075176;28;20043;-74
2021/12/09 11:40:01;;;;;;;19.20;6.85;;;;;;;20.02;11.96;100055.78;5058323;28;20090;-75
2021/12/09 11:42:37;;;;;;;12.60;6.45;;;;;;;19.90;12.48;100076.31;5059928;28;20605;-73
2021/12/09 11:45:06;;;;;;;13.57;6.38;;;;;;;20.10;12.29;100075.28;5073537;28;20066;-72